Time;durP1;ratioP1;P1;durP2;ratioP2;P2;SDS_P1;SDS_P2;PMS_P1;PMS_P2;Temp;Humidity;BMP_temperature;BMP_pressure;BME280_temperature;BME280_humidity;BME280_pressure;Samples;Min_cycle;Max_cycle;Signal;HPM_P1;HPM_P2
2021/12/25 00:02:24;;;;;;;8.00;4.67;;;6.80;99.90;;;;;;4975162;28;20468;-65
2021/12/25 00:04:49;;;;;;;7.13;3.13;;;6.80;99.90;;;;;;4975274;28;20530;-65
2021/12/25 00:07:15;;;;;;;5.60;3.00;;;6.80;99.90;;;;;;4994215;28;20418;-65
2021/12/25 00:09:41;;;;;;;7.03;3.60;;;6.80;99.90;;;;;;5001058;28;20193;-66
2021/12/25 00:12:07;;;;;;;8.07;3.30;;;6.90;99.90;;;;;;5014242;28;20643;-65
2021/12/25 00:14:32;;;;;;;7.50;3.83;;;6.90;99.90;;;;;;5014512;28;20282;-65
2021/12/25 00:17:00;;;;;;;9.73;4.17;;;6.90;99.90;;;;;;5014177;28;20441;-65
2021/12/25 00:19:25;;;;;;;6.30;3.77;;;6.90;99.90;;;;;;5010746;28;20207;-65
2021/12/25 00:21:51;;;;;;;6.30;3.37;;;6.90;99.90;;;;;;4994241;28;20951;-65
2021/12/25 00:24:17;;;;;;;9.97;4.60;;;6.90;99.90;;;;;;4994500;28;20196;-66
2021/12/25 00:29:33;;;;;;;9.23;3.70;;;6.90;99.90;;;;;;4994554;28;20480;-65
2021/12/25 00:34:34;;;;;;;6.60;3.83;;;6.90;99.90;;;;;;4994557;28;20425;-65
2021/12/25 00:37:00;;;;;;;11.60;3.53;;;6.80;99.90;;;;;;4994137;28;20776;-65
2021/12/25 00:39:29;;;;;;;10.67;4.17;;;6.70;99.90;;;;;;4994507;28;20537;-65
2021/12/25 00:41:56;;;;;;;10.63;4.37;;;6.80;99.90;;;;;;4994010;28;20195;-66
2021/12/25 00:44:21;;;;;;;10.23;4.50;;;6.80;99.90;;;;;;4993962;28;20429;-65
2021/12/25 00:46:47;;;;;;;9.70;4.10;;;6.80;99.90;;;;;;5010173;28;20496;-66
2021/12/25 00:49:13;;;;;;;11.43;4.90;;;6.70;99.90;;;;;;5013610;28;20210;-65
2021/12/25 00:51:38;;;;;;;12.20;4.00;;;6.70;99.90;;;;;;5013676;28;20179;-65
2021/12/25 00:54:04;;;;;;;7.83;3.80;;;6.70;99.90;;;;;;4999157;28;20523;-65
2021/12/25 00:56:30;;;;;;;8.83;4.17;;;6.70;99.90;;;;;;4993891;28;20218;-65
2021/12/25 00:58:55;;;;;;;5.20;3.50;;;6.70;99.90;;;;;;4993702;28;20262;-66
2021/12/25 01:01:21;;;;;;;9.90;4.50;;;6.70;99.90;;;;;;4993675;28;20212;-65
2021/12/25 01:03:48;;;;;;;8.77;4.10;;;6.70;99.90;;;;;;4993876;28;20267;-66
2021/12/25 01:06:14;;;;;;;9.03;4.53;;;6.70;99.90;;;;;;4993774;28;20407;-65
2021/12/25 01:08:40;;;;;;;6.77;3.77;;;6.70;99.90;;;;;;4992878;28;20426;-65
2021/12/25 01:11:06;;;;;;;10.63;4.07;;;6.70;99.90;;;;;;4994049;28;20398;-65
2021/12/25 01:13:37;;;;;;;7.90;3.93;;;6.70;99.90;;;;;;4993842;28;20180;-65
2021/12/25 01:34:58;;;;;;;7.93;3.77;;;6.60;99.90;;;;;;4994028;28;20449;-65
2021/12/25 01:47:45;;;;;;;5.57;3.50;;;6.70;99.90;;;;;;4974568;28;21019;-65
2021/12/25 01:50:11;;;;;;;8.03;4.03;;;6.60;99.90;;;;;;4999752;28;20437;-65
2021/12/25 01:52:37;;;;;;;9.97;4.63;;;6.80;99.90;;;;;;5013327;28;20426;-65
2021/12/25 01:55:11;;;;;;;8.97;4.20;;;6.60;99.90;;;;;;5013714;28;20457;-65
2021/12/25 01:57:37;;;;;;;10.47;4.40;;;6.60;99.90;;;;;;4999621;28;20793;-65
2021/12/25 02:00:07;;;;;;;8.57;4.27;;;6.60;99.90;;;;;;4993415;28;20554;-66
2021/12/25 02:02:32;;;;;;;8.23;4.17;;;6.60;99.90;;;;;;4993428;28;20235;-67
2021/12/25 02:04:58;;;;;;;9.60;5.13;;;6.60;99.90;;;;;;4993540;28;20442;-67
2021/12/25 02:07:24;;;;;;;10.80;4.80;;;6.60;99.90;;;;;;4993467;28;20555;-67
2021/12/25 02:09:50;;;;;;;7.97;4.17;;;6.60;99.90;;;;;;4993669;28;20619;-66
2021/12/25 02:12:16;;;;;;;7.67;3.93;;;6.70;99.90;;;;;;4996727;28;20696;-66
2021/12/25 02:14:44;;;;;;;10.50;5.43;;;6.60;99.90;;;;;;4997166;28;20362;-66
2021/12/25 02:17:27;;;;;;;6.63;4.03;;;6.60;99.90;;;;;;4997106;28;20419;-67
2021/12/25 02:20:34;;;;;;;16.20;5.67;;;6.60;99.90;;;;;;4996046;28;20415;-66
2021/12/25 02:23:04;;;;;;;9.13;3.93;;;6.70;99.90;;;;;;4994777;28;20919;-66
2021/12/25 02:25:33;;;;;;;6.80;3.90;;;6.60;99.90;;;;;;4996440;28;20454;-66
2021/12/25 02:27:59;;;;;;;6.90;4.53;;;6.60;99.90;;;;;;4996922;28;20868;-66
2021/12/25 02:30:25;;;;;;;6.70;4.23;;;6.60;99.90;;;;;;4996776;28;20455;-66
2021/12/25 02:32:50;;;;;;;9.33;4.30;;;6.60;99.90;;;;;;4996593;28;20186;-66
2021/12/25 02:35:17;;;;;;;7.30;3.70;;;6.60;99.90;;;;;;4996654;28;20211;-67
2021/12/25 02:37:44;;;;;;;11.20;4.90;;;6.60;99.90;;;;;;5008821;28;20202;-66
2021/12/25 02:40:12;;;;;;;8.83;3.80;;;6.60;99.90;;;;;;5016197;28;20414;-66
2021/12/25 02:42:38;;;;;;;8.40;4.00;;;6.60;99.90;;;;;;5016179;28;20462;-67
2021/12/25 02:45:05;;;;;;;6.70;3.37;;;6.60;99.90;;;;;;5010116;28;20467;-68
2021/12/25 02:47:31;;;;;;;8.23;4.30;;;6.50;99.90;;;;;;4996320;28;20411;-67
2021/12/25 02:49:57;;;;;;;11.80;4.77;;;6.50;99.90;;;;;;4996544;28;20447;-67
2021/12/25 02:52:23;;;;;;;10.40;5.17;;;6.60;99.90;;;;;;5003117;28;20424;-67
2021/12/25 02:54:49;;;;;;;13.30;4.60;;;6.50;99.90;;;;;;5016226;28;20414;-67
2021/12/25 02:57:16;;;;;;;8.57;4.27;;;6.50;99.90;;;;;;5015685;28;20460;-67
2021/12/25 02:59:42;;;;;;;10.73;4.60;;;6.50;99.90;;;;;;5015642;28;20191;-67
2021/12/25 03:02:12;;;;;;;6.70;4.00;;;6.50;99.90;;;;;;5015585;28;20452;-66
2021/12/25 03:04:41;;;;;;;7.27;3.37;;;6.50;99.90;;;;;;5015495;28;20422;-66
2021/12/25 03:07:08;;;;;;;11.63;4.40;;;6.50;99.90;;;;;;5015443;28;20417;-66
2021/12/25 03:09:34;;;;;;;7.93;4.30;;;6.50;99.90;;;;;;5015954;28;20425;-66
2021/12/25 03:12:02;;;;;;;9.40;4.27;;;6.50;99.90;;;;;;5015549;28;20410;-66
2021/12/25 03:14:38;;;;;;;9.60;4.43;;;6.50;99.90;;;;;;5015886;28;20723;-67
2021/12/25 03:17:04;;;;;;;10.83;5.10;;;6.50;99.90;;;;;;5015626;28;20441;-66
2021/12/25 03:19:33;;;;;;;9.20;4.50;;;6.50;99.90;;;;;;5015480;28;20469;-67
2021/12/25 03:22:02;;;;;;;9.77;5.47;;;6.50;99.90;;;;;;5015290;28;20457;-67
2021/12/25 03:24:28;;;;;;;8.00;4.83;;;6.50;99.90;;;;;;5015114;28;20413;-66
2021/12/25 03:26:56;;;;;;;10.60;6.00;;;6.50;99.90;;;;;;5015272;28;20895;-67
2021/12/25 03:29:26;;;;;;;14.80;5.80;;;6.50;99.90;;;;;;5015190;28;20402;-67
2021/12/25 03:31:52;;;;;;;15.83;5.30;;;6.50;99.90;;;;;;5014957;28;20461;-66
2021/12/25 03:34:18;;;;;;;9.33;4.93;;;6.50;99.90;;;;;;5015331;28;20453;-67
2021/12/25 03:36:44;;;;;;;12.73;6.20;;;6.40;99.90;;;;;;5014962;28;20921;-67
2021/12/25 03:39:10;;;;;;;11.03;5.50;;;6.40;99.90;;;;;;5007860;28;20426;-66
2021/12/25 03:41:36;;;;;;;12.17;5.80;;;6.40;99.90;;;;;;4995072;28;20470;-67
2021/12/25 03:44:03;;;;;;;16.57;6.37;;;6.40;99.90;;;;;;4993904;28;20469;-66
2021/12/25 03:46:29;;;;;;;15.47;6.50;;;6.30;99.90;;;;;;4995273;28;20404;-66
2021/12/25 03:59:37;;;;;;;12.10;6.10;;;6.30;99.90;;;;;;4994388;28;20465;-66
2021/12/25 04:02:09;;;;;;;10.47;4.90;;;6.20;99.90;;;;;;4994141;28;20486;-67
2021/12/25 04:04:38;;;;;;;10.73;5.13;;;6.20;99.90;;;;;;4993776;28;20243;-67
2021/12/25 04:07:15;;;;;;;8.07;4.47;;;6.20;99.90;;;;;;4994132;28;20411;-66
2021/12/25 04:09:41;;;;;;;8.63;5.13;;;6.20;99.90;;;;;;4993966;28;20419;-67
2021/12/25 04:12:10;;;;;;;11.47;5.20;;;6.20;99.90;;;;;;4993475;28;20825;-66
2021/12/25 04:14:37;;;;;;;11.80;5.17;;;6.20;99.90;;;;;;4984941;28;20585;-66
2021/12/25 04:17:03;;;;;;;11.83;4.57;;;6.10;99.90;;;;;;4975019;28;20423;-66
2021/12/25 04:19:29;;;;;;;12.40;5.17;;;6.20;99.90;;;;;;5013378;28;20414;-67
2021/12/25 04:22:02;;;;;;;8.63;4.40;;;6.10;99.90;;;;;;5013060;28;21007;-67
2021/12/25 04:24:31;;;;;;;12.10;3.97;;;6.20;99.90;;;;;;5012939;28;20156;-67
2021/12/25 04:26:57;;;;;;;10.30;5.07;;;6.20;99.90;;;;;;4997139;28;20415;-66
2021/12/25 04:42:50;;;;;;;9.80;3.60;;;6.20;99.90;;;;;;4980334;28;20462;-67
2021/12/25 05:01:44;;;;;;;7.87;3.83;;;6.10;99.90;;;;;;4993458;28;20391;-66
2021/12/25 05:04:18;;;;;;;16.73;7.00;;;6.10;99.90;;;;;;5012557;28;20876;-67
2021/12/25 05:06:43;;;;;;;10.23;5.70;;;6.10;99.90;;;;;;5012607;28;20398;-67
2021/12/25 05:09:09;;;;;;;11.70;5.93;;;6.10;99.90;;;;;;5008338;28;20407;-67
2021/12/25 05:11:35;;;;;;;15.10;5.90;;;6.00;99.90;;;;;;4993073;28;20171;-66
2021/12/25 05:14:00;;;;;;;12.10;6.17;;;6.10;99.90;;;;;;4992808;28;20219;-66
2021/12/25 05:16:26;;;;;;;12.33;5.53;;;6.00;99.90;;;;;;4992907;28;20180;-66
2021/12/25 05:18:53;;;;;;;18.20;5.83;;;6.10;99.90;;;;;;4992812;28;20175;-66
2021/12/25 05:21:19;;;;;;;12.97;4.70;;;6.10;99.90;;;;;;4992797;28;20172;-67
2021/12/25 05:23:46;;;;;;;14.90;6.17;;;6.00;99.90;;;;;;5006136;28;20411;-67
2021/12/25 05:26:12;;;;;;;19.33;7.20;;;6.10;99.90;;;;;;5012438;28;20418;-67
2021/12/25 05:28:40;;;;;;;11.70;7.20;;;6.10;99.90;;;;;;5012336;28;20412;-67
2021/12/25 05:31:07;;;;;;;18.63;6.43;;;6.10;99.90;;;;;;5012138;28;20263;-67
2021/12/25 05:33:33;;;;;;;17.73;7.23;;;6.10;99.90;;;;;;5011964;28;20521;-67
2021/12/25 05:35:59;;;;;;;16.40;7.97;;;6.10;99.90;;;;;;5010860;28;20501;-66
2021/12/25 05:38:25;;;;;;;18.47;6.57;;;6.00;99.90;;;;;;5003033;28;20195;-66
2021/12/25 05:40:51;;;;;;;27.33;7.50;;;6.00;99.90;;;;;;5010575;28;20207;-67
2021/12/25 05:43:17;;;;;;;17.40;9.00;;;6.00;99.90;;;;;;5000543;28;20458;-67
2021/12/25 05:45:43;;;;;;;18.33;8.37;;;6.00;99.90;;;;;;5006488;28;20180;-66
2021/12/25 05:48:09;;;;;;;25.27;7.97;;;6.00;99.90;;;;;;4989788;28;20235;-67
2021/12/25 05:50:35;;;;;;;19.87;8.93;;;6.00;99.90;;;;;;4976604;28;20459;-66
2021/12/25 05:53:01;;;;;;;16.57;8.17;;;6.00;99.90;;;;;;4995182;28;20829;-66
2021/12/25 05:55:26;;;;;;;14.63;6.90;;;6.10;99.90;;;;;;4995899;28;20206;-66
2021/12/25 05:57:52;;;;;;;19.10;9.27;;;6.00;99.90;;;;;;5000121;28;20222;-66
2021/12/25 06:00:19;;;;;;;22.20;8.60;;;6.00;99.90;;;;;;5015148;28;20195;-66
2021/12/25 06:02:46;;;;;;;24.43;8.40;;;6.00;99.90;;;;;;5003902;28;20247;-66
2021/12/25 06:05:11;;;;;;;19.10;9.03;;;6.00;99.90;;;;;;5006284;28;20422;-66
2021/12/25 06:07:37;;;;;;;21.40;8.70;;;6.10;99.90;;;;;;4997749;28;20959;-67
2021/12/25 06:10:06;;;;;;;19.27;8.13;;;6.00;99.90;;;;;;4991564;28;20212;-67
2021/12/25 06:12:33;;;;;;;20.47;8.43;;;6.00;99.90;;;;;;5006622;28;20187;-67
2021/12/25 06:15:01;;;;;;;13.80;6.73;;;6.00;99.90;;;;;;4995190;28;20480;-67
2021/12/25 06:17:27;;;;;;;15.23;7.80;;;6.00;99.90;;;;;;4995109;28;20472;-66
2021/12/25 06:19:53;;;;;;;12.10;7.43;;;6.00;99.90;;;;;;5008351;28;20418;-67
2021/12/25 06:22:18;;;;;;;17.57;7.20;;;6.00;99.90;;;;;;4991799;28;20346;-66
2021/12/25 06:24:49;;;;;;;12.63;6.23;;;6.10;99.90;;;;;;4995314;28;20633;-66
2021/12/25 06:27:16;;;;;;;18.63;7.10;;;6.10;99.90;;;;;;4992153;28;20533;-67
2021/12/25 06:29:42;;;;;;;13.77;6.10;;;6.10;99.90;;;;;;4989203;28;20411;-66
2021/12/25 06:32:07;;;;;;;22.00;6.83;;;6.10;99.90;;;;;;4979197;28;20988;-67
2021/12/25 06:34:33;;;;;;;27.17;7.50;;;6.30;99.90;;;;;;4975771;28;20188;-66
2021/12/25 06:36:59;;;;;;;12.67;6.10;;;6.20;99.90;;;;;;4983333;28;20183;-67
2021/12/25 06:39:25;;;;;;;13.00;6.57;;;6.20;99.90;;;;;;5005010;28;20554;-67
2021/12/25 06:41:51;;;;;;;13.60;7.07;;;6.30;99.90;;;;;;5006347;28;20497;-67
2021/12/25 06:44:17;;;;;;;21.93;6.77;;;6.20;99.90;;;;;;5015126;28;20171;-67
2021/12/25 06:46:43;;;;;;;12.60;6.10;;;6.20;99.90;;;;;;5010176;28;20180;-67
2021/12/25 06:49:09;;;;;;;18.73;6.87;;;6.30;99.90;;;;;;5007820;28;20418;-67
2021/12/25 06:51:35;;;;;;;20.37;7.30;;;6.30;99.90;;;;;;4998451;28;20787;-66
2021/12/25 06:54:02;;;;;;;14.40;6.73;;;6.30;99.90;;;;;;4999261;28;20183;-66
2021/12/25 06:56:28;;;;;;;17.87;7.67;;;6.30;99.90;;;;;;5013129;28;20202;-67
2021/12/25 06:58:53;;;;;;;16.40;5.97;;;6.30;99.90;;;;;;5013993;28;20426;-66
2021/12/25 07:01:19;;;;;;;16.03;6.50;;;6.20;99.90;;;;;;4996956;28;20200;-67
2021/12/25 07:03:45;;;;;;;16.40;6.43;;;6.30;99.90;;;;;;4993012;28;20704;-67
2021/12/25 07:06:11;;;;;;;19.17;7.00;;;6.20;99.90;;;;;;4994564;28;20544;-66
2021/12/25 07:08:37;;;;;;;15.10;7.23;;;6.30;99.90;;;;;;5011784;28;20624;-67
2021/12/25 07:11:03;;;;;;;16.67;6.10;;;6.30;99.90;;;;;;5013880;28;20257;-66
2021/12/25 07:13:28;;;;;;;10.60;5.10;;;6.30;99.90;;;;;;4997074;28;20827;-66
2021/12/25 07:15:54;;;;;;;16.60;6.43;;;6.30;99.90;;;;;;4994337;28;20423;-66
2021/12/25 07:18:20;;;;;;;14.00;6.50;;;6.40;99.90;;;;;;5010150;28;20573;-67
2021/12/25 07:20:48;;;;;;;13.10;6.60;;;6.30;99.90;;;;;;5002999;28;20259;-66
2021/12/25 07:23:15;;;;;;;12.17;6.10;;;6.30;99.90;;;;;;4995490;28;20211;-67
2021/12/25 07:25:41;;;;;;;14.00;6.13;;;6.40;99.90;;;;;;5005828;28;20561;-66
2021/12/25 07:28:07;;;;;;;12.77;6.20;;;6.40;99.90;;;;;;4999365;28;20517;-67
2021/12/25 07:30:32;;;;;;;17.80;7.50;;;6.40;99.90;;;;;;5013937;28;20206;-66
2021/12/25 07:32:59;;;;;;;13.93;5.60;;;6.40;99.90;;;;;;5011834;28;20422;-66
2021/12/25 07:35:26;;;;;;;15.80;7.30;;;6.40;99.90;;;;;;4994185;28;20229;-68
2021/12/25 07:37:51;;;;;;;17.60;6.63;;;6.40;99.90;;;;;;4986092;28;20529;-66
2021/12/25 07:40:17;;;;;;;15.33;6.10;;;6.50;99.90;;;;;;4983984;28;20927;-66
2021/12/25 07:42:43;;;;;;;13.57;5.53;;;6.40;99.90;;;;;;4994462;28;20290;-66
2021/12/25 07:45:10;;;;;;;15.70;6.17;;;6.50;99.90;;;;;;4994537;28;20538;-68
2021/12/25 07:47:40;;;;;;;13.30;5.47;;;6.40;99.90;;;;;;4994353;28;20183;-66
2021/12/25 07:50:07;;;;;;;14.90;7.07;;;6.50;99.90;;;;;;4994459;28;20411;-66
2021/12/25 07:52:33;;;;;;;13.90;5.60;;;6.60;99.90;;;;;;4993885;28;20485;-67
2021/12/25 07:54:59;;;;;;;10.67;5.37;;;6.60;99.90;;;;;;5008315;28;20426;-66
2021/12/25 07:57:24;;;;;;;13.00;5.50;;;6.60;99.90;;;;;;5007553;28;20195;-66
2021/12/25 07:59:50;;;;;;;10.27;6.00;;;6.60;99.90;;;;;;4993997;28;20230;-67
2021/12/25 08:02:16;;;;;;;17.77;7.73;;;6.60;99.90;;;;;;4994178;28;20318;-67
2021/12/25 08:04:42;;;;;;;9.27;4.97;;;6.70;99.90;;;;;;4994154;28;20572;-67
2021/12/25 08:07:08;;;;;;;9.57;4.82;;;6.70;99.90;;;;;;4994358;28;20074;-66
2021/12/25 08:09:35;;;;;;;12.80;4.53;;;6.80;99.90;;;;;;4975313;28;20246;-67
2021/12/25 08:12:02;;;;;;;14.17;5.40;;;6.70;99.90;;;;;;4974678;28;20180;-66
2021/12/25 08:14:29;;;;;;;11.23;6.60;;;6.70;99.90;;;;;;4974604;28;20408;-67
2021/12/25 08:16:56;;;;;;;11.83;5.07;;;6.70;99.90;;;;;;4974721;28;20415;-67
2021/12/25 08:19:22;;;;;;;11.40;6.10;;;6.70;99.90;;;;;;5011719;28;20441;-67
2021/12/25 08:21:48;;;;;;;14.20;4.97;;;6.60;99.90;;;;;;5013445;28;20954;-66
2021/12/25 08:24:14;;;;;;;14.60;5.93;;;6.60;99.90;;;;;;4994823;28;20407;-67
2021/12/25 08:26:41;;;;;;;17.53;6.00;;;6.60;99.90;;;;;;4983539;28;20426;-70
2021/12/25 08:29:06;;;;;;;11.10;5.37;;;6.70;99.90;;;;;;4983850;28;20226;-70
2021/12/25 08:31:32;;;;;;;8.53;5.30;;;6.70;99.90;;;;;;4999009;28;20576;-70
2021/12/25 08:33:58;;;;;;;12.10;4.50;;;6.70;99.90;;;;;;4996388;28;20199;-70
2021/12/25 08:36:23;;;;;;;6.20;4.17;;;6.70;99.90;;;;;;4985982;28;20192;-69
2021/12/25 08:38:49;;;;;;;10.27;4.70;;;6.70;99.90;;;;;;4992418;28;20207;-70
2021/12/25 08:41:15;;;;;;;11.53;5.70;;;6.70;99.90;;;;;;4995463;28;20683;-70
2021/12/25 08:43:48;;;;;;;14.47;4.93;;;6.70;99.90;;;;;;4990096;28;20552;-69
2021/12/25 08:46:25;;;;;;;8.97;5.00;;;6.80;99.90;;;;;;4982292;28;20570;-73
2021/12/25 08:48:52;;;;;;;8.87;5.00;;;6.80;99.90;;;;;;4993548;28;20425;-73
2021/12/25 08:51:17;;;;;;;8.53;4.00;;;6.80;99.90;;;;;;5007817;28;20500;-73
2021/12/25 08:53:43;;;;;;;8.53;4.20;;;6.90;99.90;;;;;;4995791;28;20451;-72
2021/12/25 08:56:09;;;;;;;9.67;4.03;;;6.90;99.90;;;;;;5004661;28;20183;-69
2021/12/25 08:58:35;;;;;;;17.90;4.33;;;6.90;99.90;;;;;;4995457;28;20529;-73
2021/12/25 09:01:06;;;;;;;7.47;4.37;;;6.90;99.90;;;;;;4993317;28;20239;-67
2021/12/25 09:03:32;;;;;;;7.53;3.37;;;7.00;99.90;;;;;;4993948;28;20495;-67
2021/12/25 09:05:59;;;;;;;8.37;4.30;;;7.00;99.90;;;;;;4993874;28;20497;-67
2021/12/25 09:08:26;;;;;;;7.47;4.10;;;7.10;99.90;;;;;;4993840;28;20255;-67
2021/12/25 09:10:53;;;;;;;10.30;4.80;;;7.20;99.90;;;;;;4993933;28;20399;-67
2021/12/25 09:13:19;;;;;;;10.33;4.90;;;7.20;99.90;;;;;;4993483;28;20415;-67
2021/12/25 09:15:44;;;;;;;6.57;4.17;;;7.30;99.90;;;;;;4993692;28;20966;-67
2021/12/25 09:18:10;;;;;;;8.63;4.13;;;7.20;99.90;;;;;;4993643;28;20538;-68
2021/12/25 09:20:36;;;;;;;6.63;4.30;;;7.20;99.90;;;;;;4996297;28;20175;-68
2021/12/25 09:23:02;;;;;;;8.50;5.00;;;7.30;99.90;;;;;;4997663;28;20207;-68
2021/12/25 09:25:28;;;;;;;20.20;5.33;;;7.30;99.90;;;;;;4997823;28;20414;-67
2021/12/25 09:27:54;;;;;;;16.50;7.30;;;7.30;99.90;;;;;;4997767;28;20172;-67
2021/12/25 09:30:21;;;;;;;10.73;5.93;;;7.30;99.90;;;;;;4997600;28;20592;-68
2021/12/25 09:32:47;;;;;;;17.43;4.47;;;7.30;99.90;;;;;;4997454;28;20183;-68
2021/12/25 09:35:13;;;;;;;10.10;3.83;;;7.30;99.90;;;;;;4997577;28;20457;-67
2021/12/25 09:37:39;;;;;;;9.67;4.27;;;7.40;99.90;;;;;;4997552;28;20415;-68
2021/12/25 09:40:07;;;;;;;6.13;3.03;;;7.40;99.90;;;;;;4997455;28;20421;-67
2021/12/25 09:42:34;;;;;;;4.60;2.83;;;7.40;99.90;;;;;;4997446;28;20313;-67
2021/12/25 09:45:00;;;;;;;4.07;2.57;;;7.50;99.90;;;;;;4997632;28;20430;-67
2021/12/25 09:47:25;;;;;;;3.37;1.90;;;7.60;99.90;;;;;;4997447;28;20415;-67
2021/12/25 09:49:51;;;;;;;3.20;1.47;;;7.60;99.90;;;;;;4997241;28;20180;-67
2021/12/25 09:52:17;;;;;;;4.17;2.20;;;7.60;99.90;;;;;;4997298;28;20211;-67
2021/12/25 09:54:44;;;;;;;5.97;2.93;;;7.70;99.90;;;;;;4996085;28;20517;-66
2021/12/25 09:57:10;;;;;;;4.63;2.07;;;7.70;99.90;;;;;;5015368;28;20422;-67
2021/12/25 09:59:36;;;;;;;7.00;2.40;;;7.70;99.90;;;;;;5013131;28;20409;-65
2021/12/25 10:02:02;;;;;;;4.93;2.30;;;7.80;99.90;;;;;;4994440;28;20243;-65
2021/12/25 10:04:52;;;;;;;3.60;2.20;;;7.70;99.90;;;;;;4995359;28;20446;-67
2021/12/25 10:07:20;;;;;;;3.97;2.00;;;7.70;99.90;;;;;;4988861;28;20415;-66
2021/12/25 10:10:04;;;;;;;3.50;1.80;;;7.70;99.90;;;;;;4988501;28;20518;-66
2021/12/25 10:12:47;;;;;;;3.40;1.70;;;7.80;99.90;;;;;;4984927;28;20946;-66
2021/12/25 10:15:19;;;;;;;5.60;2.03;;;7.80;99.90;;;;;;4993564;28;20466;-66
2021/12/25 10:17:46;;;;;;;5.60;1.57;;;7.80;99.90;;;;;;4994541;28;20465;-67
2021/12/25 10:20:14;;;;;;;6.73;2.23;;;7.80;99.90;;;;;;4994258;28;20429;-67
2021/12/25 10:23:01;;;;;;;4.13;1.97;;;7.80;99.90;;;;;;4997550;28;20962;-67
2021/12/25 10:25:32;;;;;;;2.97;1.57;;;7.90;99.90;;;;;;5003183;28;20818;-66
2021/12/25 10:28:04;;;;;;;3.10;1.80;;;7.90;99.90;;;;;;4996800;28;20419;-66
2021/12/25 10:30:31;;;;;;;2.97;1.90;;;7.90;99.90;;;;;;5012926;28;20429;-66
2021/12/25 10:32:57;;;;;;;3.63;2.20;;;7.90;99.90;;;;;;5003030;28;20561;-67
2021/12/25 10:35:27;;;;;;;7.43;2.80;;;7.90;99.90;;;;;;5001544;28;20516;-67
2021/12/25 10:37:54;;;;;;;3.50;1.77;;;8.00;99.90;;;;;;5001452;28;20272;-66
2021/12/25 10:40:27;;;;;;;3.73;1.90;;;8.10;99.90;;;;;;4994776;28;20919;-68
2021/12/25 10:42:57;;;;;;;5.63;1.83;;;8.00;99.90;;;;;;4993116;28;20546;-66
2021/12/25 10:45:26;;;;;;;6.30;2.50;;;8.00;99.90;;;;;;5012137;28;20421;-65
2021/12/25 10:48:07;;;;;;;4.83;2.83;;;8.10;99.90;;;;;;4991945;28;20430;-65
2021/12/25 10:50:41;;;;;;;11.57;4.63;;;8.10;99.90;;;;;;4983914;28;20904;-66
2021/12/25 10:53:26;;;;;;;6.93;3.37;;;8.20;99.90;;;;;;4994270;28;20460;-66
2021/12/25 10:55:53;;;;;;;5.80;3.07;;;8.30;99.90;;;;;;4989922;28;20752;-65
2021/12/25 10:58:24;;;;;;;3.10;1.83;;;8.30;99.90;;;;;;4990328;28;20566;-65
2021/12/25 11:00:55;;;;;;;3.70;1.80;;;8.40;99.90;;;;;;4995898;28;20541;-66
2021/12/25 11:03:34;;;;;;;2.83;1.30;;;8.50;99.90;;;;;;4994851;28;20488;-69
2021/12/25 11:06:07;;;;;;;3.40;2.03;;;8.50;99.90;;;;;;4997065;28;20452;-67
2021/12/25 11:08:34;;;;;;;5.20;1.33;;;8.50;99.90;;;;;;4995142;28;20536;-66
2021/12/25 11:11:14;;;;;;;2.00;1.17;;;8.60;99.90;;;;;;4992707;28;21155;-65
2021/12/25 11:13:41;;;;;;;1.97;1.00;;;8.60;99.90;;;;;;5005679;28;20911;-66
2021/12/25 11:16:30;;;;;;;1.83;1.03;;;8.60;99.90;;;;;;4995549;28;20454;-67
2021/12/25 11:19:12;;;;;;;3.43;1.70;;;8.70;99.90;;;;;;5005181;28;20423;-65
2021/12/25 11:21:58;;;;;;;1.63;0.90;;;8.70;99.90;;;;;;4995295;28;20902;-66
2021/12/25 11:24:25;;;;;;;4.10;1.67;;;8.70;99.90;;;;;;5000180;28;20464;-67
2021/12/25 11:26:56;;;;;;;3.37;1.80;;;8.80;99.90;;;;;;5010406;28;20472;-66
2021/12/25 11:29:24;;;;;;;3.97;1.40;;;8.80;99.90;;;;;;4993672;28;20415;-66
2021/12/25 11:31:52;;;;;;;2.90;1.63;;;8.80;99.90;;;;;;5001275;28;20524;-65
2021/12/25 11:34:19;;;;;;;4.37;1.70;;;8.80;99.90;;;;;;5010819;28;20424;-67
2021/12/25 11:36:48;;;;;;;2.53;1.33;;;8.80;99.90;;;;;;5001233;28;20434;-69
2021/12/25 11:39:22;;;;;;;3.00;1.40;;;8.80;99.90;;;;;;4997089;28;20775;-65
2021/12/25 11:41:49;;;;;;;3.50;1.97;;;8.70;99.90;;;;;;5012887;28;20461;-67
2021/12/25 11:44:41;;;;;;;3.40;1.70;;;8.70;99.90;;;;;;4995470;28;20418;-66
2021/12/25 11:47:07;;;;;;;3.10;1.40;;;8.70;99.90;;;;;;4975044;28;20743;-66
2021/12/25 11:49:50;;;;;;;2.93;1.80;;;8.60;99.90;;;;;;4975393;28;20474;-67
2021/12/25 11:52:23;;;;;;;2.83;1.63;;;8.50;99.90;;;;;;5009045;28;20492;-66
2021/12/25 11:55:15;;;;;;;3.30;2.03;;;8.40;99.90;;;;;;5004900;28;20439;-67
2021/12/25 11:58:37;;;;;;;3.30;1.60;;;8.40;99.90;;;;;;4986848;28;20772;-66
2021/12/25 12:00:36;;;;;;;2.97;1.30;;;8.30;99.90;;;;;;4976958;28;20435;-67
2021/12/25 12:03:02;;;;;;;2.27;1.10;;;8.30;99.90;;;;;;5003403;28;20486;-67
2021/12/25 12:05:31;;;;;;;3.90;1.60;;;8.30;99.90;;;;;;4994330;28;20442;-67
2021/12/25 12:08:12;;;;;;;2.27;1.13;;;8.30;99.90;;;;;;4991504;28;20446;-65
2021/12/25 12:10:44;;;;;;;2.40;1.70;;;8.30;99.90;;;;;;4993094;28;20457;-65
2021/12/25 12:13:18;;;;;;;4.07;1.53;;;8.30;99.90;;;;;;4991482;28;20822;-67
2021/12/25 12:15:49;;;;;;;2.10;1.10;;;8.30;99.90;;;;;;4988305;28;20450;-73
2021/12/25 12:18:24;;;;;;;3.17;1.83;;;8.30;99.90;;;;;;4987933;28;20438;-71
2021/12/25 12:20:51;;;;;;;2.10;1.00;;;8.30;99.90;;;;;;4989179;28;20872;-70
2021/12/25 12:26:10;;;;;;;2.70;1.20;;;8.30;99.90;;;;;;4995442;28;20472;-70
2021/12/25 12:28:52;;;;;;;4.40;2.03;;;8.30;99.90;;;;;;4995734;28;20429;-71
2021/12/25 12:31:37;;;;;;;2.97;1.83;;;8.30;99.90;;;;;;4996462;28;20444;-67
2021/12/25 12:34:29;;;;;;;1.70;1.00;;;8.30;99.90;;;;;;4990765;28;20463;-69
2021/12/25 12:37:13;;;;;;;3.10;1.57;;;8.30;99.90;;;;;;4991590;28;20489;-71
2021/12/25 12:39:54;;;;;;;4.93;2.10;;;8.30;99.90;;;;;;5000536;28;20410;-70
2021/12/25 12:42:43;;;;;;;3.10;1.20;;;8.30;99.90;;;;;;4987501;28;20967;-70
2021/12/25 12:45:19;;;;;;;3.30;1.43;;;8.30;99.90;;;;;;4987223;28;20415;-71
2021/12/25 12:48:19;;;;;;;1.97;1.10;;;8.40;99.90;;;;;;4986243;28;20900;-69
2021/12/25 12:50:51;;;;;;;9.13;1.30;;;8.40;99.90;;;;;;4989705;28;20414;-69
2021/12/25 12:53:18;;;;;;;2.73;1.43;;;8.40;99.90;;;;;;4984681;28;20465;-70
2021/12/25 12:55:47;;;;;;;10.50;3.60;;;8.40;99.90;;;;;;4988887;28;20422;-68
2021/12/25 12:58:25;;;;;;;8.67;4.00;;;8.40;99.90;;;;;;4990731;28;20717;-70
2021/12/25 13:01:01;;;;;;;5.37;2.30;;;8.40;99.90;;;;;;4986720;28;20494;-69
2021/12/25 13:03:28;;;;;;;7.60;2.33;;;8.30;99.90;;;;;;4987914;28;20829;-67
2021/12/25 13:06:06;;;;;;;3.20;1.97;;;8.40;99.90;;;;;;4989737;28;20431;-69
2021/12/25 13:08:36;;;;;;;2.97;1.50;;;8.30;99.90;;;;;;4987060;28;20478;-69
2021/12/25 13:11:22;;;;;;;4.33;1.43;;;8.30;99.90;;;;;;4992706;28;20429;-70
2021/12/25 13:13:58;;;;;;;4.93;2.63;;;8.30;99.90;;;;;;4993466;28;20496;-68
2021/12/25 13:16:32;;;;;;;6.43;2.57;;;8.30;99.90;;;;;;4994248;28;20854;-69
2021/12/25 13:19:03;;;;;;;5.20;2.10;;;8.30;99.90;;;;;;4983884;28;20474;-69
2021/12/25 13:21:31;;;;;;;6.30;2.37;;;8.30;99.90;;;;;;4986561;28;20455;-69
2021/12/25 13:24:09;;;;;;;3.80;2.00;;;8.30;99.90;;;;;;4996745;28;20820;-67
2021/12/25 13:26:42;;;;;;;5.30;2.87;;;8.20;99.90;;;;;;5013309;28;20393;-66
2021/12/25 13:29:11;;;;;;;6.40;3.90;;;8.20;99.90;;;;;;5013018;28;20416;-66
2021/12/25 13:31:39;;;;;;;7.53;3.50;;;8.20;99.90;;;;;;5013100;28;20421;-66
2021/12/25 13:34:11;;;;;;;7.80;3.80;;;8.20;99.90;;;;;;5013269;28;20452;-66
2021/12/25 13:36:38;;;;;;;8.20;4.00;;;8.20;99.90;;;;;;5013638;28;20414;-66
2021/12/25 13:39:12;;;;;;;8.53;4.10;;;8.10;99.90;;;;;;5013209;28;20434;-66
2021/12/25 13:41:42;;;;;;;7.70;4.00;;;8.10;99.90;;;;;;5013102;28;20386;-66
2021/12/25 13:44:23;;;;;;;7.60;3.90;;;8.10;99.90;;;;;;5013029;28;20398;-66
2021/12/25 13:46:56;;;;;;;11.30;4.40;;;8.10;99.90;;;;;;5013124;28;20394;-65
2021/12/25 13:49:40;;;;;;;19.70;4.63;;;8.10;99.90;;;;;;5012908;28;20500;-66
2021/12/25 13:52:20;;;;;;;6.13;2.90;;;8.10;99.90;;;;;;5012902;28;20945;-66
2021/12/25 13:55:19;;;;;;;9.20;4.63;;;8.00;99.90;;;;;;4973767;28;20920;-66
2021/12/25 13:57:58;;;;;;;8.70;4.60;;;8.00;99.90;;;;;;4974381;28;20901;-66
2021/12/25 14:00:39;;;;;;;9.30;4.20;;;8.00;99.90;;;;;;4973859;28;20454;-65
2021/12/25 14:03:11;;;;;;;7.90;4.23;;;8.00;99.90;;;;;;4974217;28;20463;-64
2021/12/25 14:05:40;;;;;;;10.23;4.30;;;8.00;99.90;;;;;;4988874;28;20502;-64
2021/12/25 14:08:06;;;;;;;11.43;5.77;;;8.00;99.90;;;;;;4977041;28;20412;-64
2021/12/25 14:10:34;;;;;;;8.17;4.57;;;8.00;99.90;;;;;;4977518;28;20419;-65
2021/12/25 14:13:03;;;;;;;8.50;4.90;;;8.00;99.90;;;;;;4977558;28;20640;-65
2021/12/25 14:15:34;;;;;;;9.30;4.30;;;8.00;99.90;;;;;;4977465;28;20444;-66
2021/12/25 14:18:05;;;;;;;9.33;4.43;;;8.00;99.90;;;;;;4977461;28;20424;-66
2021/12/25 14:20:33;;;;;;;12.50;5.30;;;8.00;99.90;;;;;;4977543;28;20416;-65
2021/12/25 14:23:09;;;;;;;16.40;5.63;;;8.00;99.90;;;;;;4977486;28;20448;-66